Greenville Airport (GRE)
Greenville, IL
Field Elevation: 540
Lat: 38°50.00N  Long: 89°22.00W
CTAF/Unicom Freq: 123.0500
   
     For Weather-by-Phone, call (618) 664-1939
Weather Advisories
2022-05-25   16:44 Z
Altimeter 29.85" Hg
Wind 160° @ 11 KT
Gusts 19 KT
Visibility 10 SM
Temperature 26° C (79° F)
Dewpoint 21° C (70° F)
Relative Humidity 76%
Density Altitude 1,900 feet
Condensation Altitude 3,000 feet
Wind and Runways
Indicated Runway = 18
Headwind = 10 kt
Crosswind = 4 kt
History
 
 
 
More Info
 
NOAA Forecast
 
Airport IQ 5010
(FLV) Sherman Airfield
(VLA) Vandalia
 
about Belfort Instrument
 
FAA Disclaimer: The data displayed is for advisory purposes only and is not to be used for flight planning or operations. For official data, please call (618) 664-1939 to hear the current automated AWOS voice message.
  METAR GRE 251644Z AUTO 16011G19KT 10 SM 26/21 A2985